Meteorological Aerodrome Report (METAR)

Updated on: Tue 23 Jul 2024 at 08:06:30PM VUT Local time - UTC time: 2024-07-23 09:06:30Z


METAR NVSC 230900Z NIL

METAR NVSG 230900Z 12011KT 9999 SCT018 BKN040 27/25 Q1012 RERA

METAR NVSS 230900Z 13011KT 9999 BKN020 25/23 Q1014

METAR NVVV 230900Z 11007KT 9999 -DZ BKN018 23/22 Q1016

METAR NVVW 230900Z 00000KT 9999 SCT020 BKN040 23/20 Q1017

METAR NVVA 230900Z 09008KT 9999 SCT020 OVC040 20/19 Q1019